createdAt,value
2023-05-15T00:01:24.611Z,100.00
2023-05-15T00:03:52.298Z,100.00
2023-05-15T00:06:19.993Z,100.00
2023-05-15T00:08:48.032Z,100.00
2023-05-15T00:11:14.717Z,100.00
2023-05-15T00:13:41.373Z,100.00
2023-05-15T00:16:10.268Z,100.00
2023-05-15T00:18:37.095Z,100.00
2023-05-15T00:21:04.926Z,100.00
2023-05-15T00:23:31.555Z,100.00
2023-05-15T00:25:58.220Z,100.00
2023-05-15T00:28:25.091Z,100.00
2023-05-15T00:30:52.348Z,100.00
2023-05-15T00:33:20.126Z,100.00
2023-05-15T00:35:48.107Z,100.00
2023-05-15T00:38:14.700Z,100.00
2023-05-15T00:40:44.082Z,100.00
2023-05-15T00:43:12.296Z,100.00
2023-05-15T00:45:40.829Z,100.00
2023-05-15T00:48:09.856Z,100.00
2023-05-15T00:50:37.041Z,100.00
2023-05-15T00:53:05.299Z,100.00
2023-05-15T00:55:33.410Z,100.00
2023-05-15T00:58:01.544Z,100.00
2023-05-15T01:00:28.615Z,100.00
2023-05-15T01:02:55.433Z,100.00
2023-05-15T01:05:22.260Z,100.00
2023-05-15T01:08:27.723Z,100.00
2023-05-15T01:10:55.575Z,100.00
2023-05-15T01:13:23.175Z,100.00
2023-05-15T01:15:50.335Z,100.00
2023-05-15T01:18:17.724Z,100.00
2023-05-15T01:21:11.807Z,100.00
2023-05-15T01:24:17.748Z,100.00
2023-05-15T01:27:03.095Z,100.00
2023-05-15T01:29:51.609Z,100.00
2023-05-15T01:32:32.278Z,100.00
2023-05-15T01:35:13.420Z,100.00
2023-05-15T01:37:50.099Z,100.00
2023-05-15T01:40:19.776Z,100.00
2023-05-15T01:43:03.778Z,100.00
2023-05-15T01:45:33.496Z,100.00
2023-05-15T01:48:01.933Z,100.00
2023-05-15T01:50:33.893Z,100.00
2023-05-15T01:53:02.209Z,100.00
2023-05-15T01:55:30.245Z,100.00
2023-05-15T01:58:01.145Z,100.00
2023-05-15T02:00:29.821Z,100.00
2023-05-15T02:02:57.793Z,100.00
2023-05-15T02:05:27.122Z,100.00
2023-05-15T02:07:54.893Z,100.00
2023-05-15T02:10:22.967Z,100.00
2023-05-15T02:12:50.463Z,100.00
2023-05-15T02:15:18.882Z,100.00
2023-05-15T02:17:45.606Z,100.00
2023-05-15T02:20:13.708Z,100.00
2023-05-15T02:22:40.332Z,100.00
2023-05-15T02:25:08.444Z,100.00
2023-05-15T02:27:45.760Z,100.00
2023-05-15T02:30:16.230Z,100.00
2023-05-15T02:33:18.257Z,100.00
2023-05-15T02:36:14.188Z,100.00
2023-05-15T02:38:53.706Z,100.00
2023-05-15T02:41:23.447Z,100.00
2023-05-15T02:43:52.717Z,100.00
2023-05-15T02:46:21.645Z,100.00
2023-05-15T02:48:48.879Z,100.00
2023-05-15T02:51:15.749Z,100.00
2023-05-15T02:53:43.155Z,100.00
2023-05-15T02:56:10.129Z,100.00
2023-05-15T02:58:39.453Z,100.00
2023-05-15T03:01:06.341Z,100.00
2023-05-15T03:03:33.136Z,100.00
2023-05-15T03:06:02.836Z,100.00
2023-05-15T03:08:29.525Z,100.00
2023-05-15T03:10:56.232Z,100.00
2023-05-15T03:13:22.911Z,100.00
2023-05-15T03:15:50.921Z,100.00
2023-05-15T03:18:19.059Z,100.00
2023-05-15T03:20:48.553Z,100.00
2023-05-15T03:23:15.422Z,100.00
2023-05-15T03:25:42.018Z,100.00
2023-05-15T03:28:10.112Z,100.00
2023-05-15T03:30:36.698Z,100.00
2023-05-15T03:33:07.715Z,100.00
2023-05-15T03:35:34.381Z,100.00
2023-05-15T03:38:01.412Z,100.00
2023-05-15T03:40:28.404Z,100.00
2023-05-15T03:42:55.098Z,100.00
2023-05-15T03:45:21.737Z,100.00
2023-05-15T03:47:49.620Z,100.00
2023-05-15T03:50:16.527Z,100.00
2023-05-15T03:52:43.353Z,100.00
2023-05-15T03:55:11.311Z,100.00
2023-05-15T03:57:38.024Z,100.00
2023-05-15T04:00:11.247Z,100.00
2023-05-15T04:02:38.060Z,100.00
2023-05-15T04:05:05.523Z,100.00
2023-05-15T04:07:33.690Z,100.00
2023-05-15T04:10:04.127Z,100.00
2023-05-15T04:12:34.809Z,100.00
2023-05-15T04:15:18.834Z,100.00
2023-05-15T04:17:48.278Z,100.00
2023-05-15T04:20:16.462Z,100.00
2023-05-15T04:22:45.153Z,100.00
2023-05-15T04:25:14.638Z,100.00
2023-05-15T04:27:43.220Z,100.00
2023-05-15T04:30:11.409Z,100.00
2023-05-15T04:32:38.679Z,100.00
2023-05-15T04:35:10.199Z,100.00
2023-05-15T04:37:37.670Z,100.00
2023-05-15T04:40:07.672Z,100.00
2023-05-15T04:42:37.589Z,100.00
2023-05-15T04:45:05.913Z,100.00
2023-05-15T04:47:32.666Z,100.00
2023-05-15T04:49:59.339Z,100.00
2023-05-15T04:52:25.954Z,100.00
2023-05-15T04:54:55.351Z,100.00
2023-05-15T04:57:23.454Z,100.00
2023-05-15T04:59:50.122Z,100.00
2023-05-15T05:02:19.876Z,100.00
2023-05-15T05:04:46.520Z,100.00
2023-05-15T05:07:13.133Z,100.00
2023-05-15T05:09:40.464Z,100.00
2023-05-15T05:12:09.935Z,100.00
2023-05-15T05:14:36.915Z,100.00
2023-05-15T05:17:05.502Z,100.00
2023-05-15T05:19:32.100Z,100.00
2023-05-15T05:22:02.494Z,100.00
2023-05-15T05:24:29.723Z,100.00
2023-05-15T05:26:58.271Z,100.00
2023-05-15T05:29:26.117Z,100.00
2023-05-15T05:31:53.635Z,100.00
2023-05-15T05:34:20.392Z,100.00
2023-05-15T05:36:47.226Z,100.00
2023-05-15T05:39:14.308Z,100.00
2023-05-15T05:41:40.948Z,100.00
2023-05-15T05:44:07.947Z,100.00
2023-05-15T05:46:36.082Z,100.00
2023-05-15T05:49:02.726Z,100.00
2023-05-15T05:51:29.565Z,100.00
2023-05-15T05:53:56.181Z,100.00
2023-05-15T05:56:23.665Z,100.00
2023-05-15T05:58:50.294Z,100.00
2023-05-15T06:01:17.005Z,100.00
2023-05-15T06:03:43.922Z,100.00
2023-05-15T06:06:10.858Z,100.00
2023-05-15T06:08:37.497Z,100.00
2023-05-15T06:11:04.333Z,100.00
2023-05-15T06:13:31.018Z,100.00
2023-05-15T06:15:57.742Z,100.00
2023-05-15T06:18:24.513Z,100.00
2023-05-15T06:20:51.809Z,100.00
2023-05-15T06:23:20.292Z,100.00
2023-05-15T06:25:48.487Z,100.00
2023-05-15T06:28:15.067Z,100.00
2023-05-15T06:30:41.703Z,100.00
2023-05-15T06:33:08.472Z,100.00
2023-05-15T06:35:35.704Z,100.00
2023-05-15T06:38:02.479Z,100.00
2023-05-15T06:40:29.284Z,100.00
2023-05-15T06:42:56.592Z,100.00
2023-05-15T06:45:23.452Z,100.00
2023-05-15T06:47:50.207Z,100.00
2023-05-15T06:50:16.891Z,100.00
2023-05-15T06:52:44.585Z,100.00
2023-05-15T06:55:12.557Z,100.00
2023-05-15T06:57:39.184Z,100.00
2023-05-15T07:00:07.742Z,100.00
2023-05-15T07:02:34.507Z,100.00
2023-05-15T07:05:02.598Z,100.00
2023-05-15T07:07:29.218Z,100.00
2023-05-15T07:09:55.799Z,100.00
2023-05-15T07:12:23.164Z,100.00
2023-05-15T07:14:49.764Z,100.00
2023-05-15T07:17:18.838Z,100.00
2023-05-15T07:19:45.570Z,100.00
2023-05-15T07:22:12.183Z,100.00
2023-05-15T07:24:40.694Z,100.00
2023-05-15T07:27:07.352Z,100.00
2023-05-15T07:29:33.945Z,100.00
2023-05-15T07:32:01.924Z,100.00
2023-05-15T07:34:28.628Z,100.00
2023-05-15T07:36:55.240Z,100.00
2023-05-15T07:39:21.910Z,100.00
2023-05-15T07:41:49.467Z,100.00
2023-05-15T07:44:16.597Z,100.00
2023-05-15T07:46:43.382Z,100.00
2023-05-15T07:49:10.041Z,100.00
2023-05-15T07:51:36.667Z,100.00
2023-05-15T07:54:05.634Z,100.00
2023-05-15T07:56:33.230Z,100.00
2023-05-15T07:59:00.978Z,100.00
2023-05-15T08:01:28.304Z,100.00
2023-05-15T08:03:56.678Z,100.00
2023-05-15T08:06:23.440Z,100.00
2023-05-15T08:08:50.036Z,100.00
2023-05-15T08:11:16.674Z,100.00
2023-05-15T08:13:43.345Z,100.00
2023-05-15T08:16:10.143Z,100.00
2023-05-15T08:18:37.039Z,100.00
2023-05-15T08:21:04.734Z,100.00
2023-05-15T08:23:32.574Z,100.00
2023-05-15T08:26:00.634Z,100.00
2023-05-15T08:28:28.430Z,100.00
2023-05-15T08:30:55.086Z,100.00
2023-05-15T08:33:21.749Z,100.00
2023-05-15T08:35:48.485Z,100.00
2023-05-15T08:38:15.154Z,100.00
2023-05-15T08:40:46.887Z,100.00
2023-05-15T08:43:18.030Z,100.00
2023-05-15T08:45:45.755Z,100.00
2023-05-15T08:48:19.703Z,100.00
2023-05-15T08:50:47.537Z,100.00
2023-05-15T08:53:14.675Z,100.00
2023-05-15T08:55:43.671Z,100.00
2023-05-15T08:58:10.799Z,100.00
2023-05-15T09:00:37.951Z,100.00
2023-05-15T09:03:05.077Z,100.00
2023-05-15T09:05:32.144Z,100.00
2023-05-15T09:08:03.932Z,100.00
2023-05-15T09:10:31.813Z,100.00
2023-05-15T09:13:01.747Z,100.00
2023-05-15T09:15:30.155Z,100.00
2023-05-15T09:17:56.893Z,100.00
2023-05-15T09:20:32.344Z,100.00
2023-05-15T09:23:02.456Z,98.53
2023-05-15T09:25:40.129Z,97.73
2023-05-15T09:28:08.857Z,98.60
2023-05-15T09:30:38.525Z,97.89
2023-05-15T09:33:05.219Z,97.49
2023-05-15T09:35:39.252Z,97.87
2023-05-15T09:38:12.207Z,98.54
2023-05-15T09:40:44.647Z,98.36
2023-05-15T09:43:14.330Z,98.35
2023-05-15T09:45:41.090Z,98.85
2023-05-15T09:48:08.345Z,99.41
2023-05-15T09:50:36.865Z,96.46
2023-05-15T09:53:04.084Z,97.31
2023-05-15T09:55:36.164Z,95.99
2023-05-15T09:58:16.130Z,95.34
2023-05-15T10:00:47.674Z,94.56
2023-05-15T10:03:16.842Z,92.57
2023-05-15T10:05:44.417Z,91.60
2023-05-15T10:08:12.680Z,91.81
2023-05-15T10:10:39.630Z,90.95
2023-05-15T10:13:08.478Z,87.72
2023-05-15T10:15:35.746Z,88.19
2023-05-15T10:18:04.748Z,89.68
2023-05-15T10:20:33.245Z,86.66
2023-05-15T10:23:04.064Z,87.51
2023-05-15T10:25:51.886Z,88.87
2023-05-15T10:28:19.809Z,87.76
2023-05-15T10:30:46.952Z,88.08
2023-05-15T10:33:14.795Z,87.89
2023-05-15T10:35:43.296Z,86.87
2023-05-15T10:38:12.750Z,82.47
2023-05-15T10:40:41.878Z,80.75
2023-05-15T10:43:10.285Z,79.50
2023-05-15T10:45:37.172Z,79.24
2023-05-15T10:48:07.686Z,78.24
2023-05-15T10:50:37.795Z,75.64
2023-05-15T10:53:04.547Z,75.59
2023-05-15T10:55:31.347Z,75.26
2023-05-15T10:57:59.217Z,74.60
2023-05-15T11:00:27.929Z,74.32
2023-05-15T11:02:57.265Z,74.78
2023-05-15T11:05:24.801Z,72.37
2023-05-15T11:08:18.472Z,71.23
2023-05-15T11:10:45.191Z,72.04
2023-05-15T11:13:12.211Z,70.73
2023-05-15T11:15:46.797Z,70.24
2023-05-15T11:18:14.025Z,72.60
2023-05-15T11:20:49.688Z,72.60
2023-05-15T11:23:16.313Z,73.42
2023-05-15T11:25:44.346Z,71.45
2023-05-15T11:28:21.933Z,72.27
2023-05-15T11:30:51.830Z,73.49
2023-05-15T11:33:20.914Z,73.50
2023-05-15T11:35:48.259Z,74.83
2023-05-15T11:38:27.094Z,76.50
2023-05-15T11:40:57.927Z,75.74
2023-05-15T11:43:31.770Z,75.95
2023-05-15T11:46:05.010Z,76.18
2023-05-15T11:48:34.139Z,77.41
2023-05-15T11:51:05.693Z,77.39
2023-05-15T11:53:33.459Z,78.87
2023-05-15T11:56:02.157Z,79.88
2023-05-15T11:58:29.987Z,81.49
2023-05-15T12:00:58.028Z,83.24
2023-05-15T12:03:27.317Z,89.16
2023-05-15T12:05:59.556Z,100.00
2023-05-15T12:08:31.936Z,100.00
2023-05-15T12:10:59.256Z,100.00
2023-05-15T12:13:25.899Z,100.00
2023-05-15T12:15:55.555Z,100.00
2023-05-15T12:18:22.721Z,100.00
2023-05-15T12:20:52.717Z,100.00
2023-05-15T12:23:21.988Z,100.00
2023-05-15T12:25:52.813Z,100.00
2023-05-15T12:28:21.052Z,100.00
2023-05-15T12:30:48.046Z,100.00
2023-05-15T12:33:15.039Z,100.00
2023-05-15T12:35:45.277Z,100.00
2023-05-15T12:38:16.481Z,100.00
2023-05-15T12:40:53.567Z,100.00
2023-05-15T12:43:24.869Z,100.00
2023-05-15T12:45:53.020Z,100.00
2023-05-15T12:48:21.248Z,100.00
2023-05-15T12:50:55.661Z,100.00
2023-05-15T12:53:23.550Z,100.00
2023-05-15T12:55:52.527Z,100.00
2023-05-15T12:58:21.321Z,100.00
2023-05-15T13:00:48.847Z,100.00
2023-05-15T13:03:16.000Z,100.00
2023-05-15T13:05:44.360Z,100.00
2023-05-15T13:08:15.697Z,100.00
2023-05-15T13:10:42.387Z,100.00
2023-05-15T13:13:10.465Z,100.00
2023-05-15T13:15:44.782Z,100.00
2023-05-15T13:18:11.305Z,100.00
2023-05-15T13:20:42.950Z,100.00
2023-05-15T13:23:11.319Z,100.00
2023-05-15T13:25:38.036Z,100.00
2023-05-15T13:28:08.372Z,100.00
2023-05-15T13:30:36.718Z,100.00
2023-05-15T13:33:03.943Z,100.00
2023-05-15T13:35:31.020Z,100.00
2023-05-15T13:37:59.003Z,100.00
2023-05-15T13:40:27.332Z,100.00
2023-05-15T13:42:54.114Z,100.00
2023-05-15T13:45:20.842Z,100.00
2023-05-15T13:47:47.548Z,100.00
2023-05-15T13:50:15.870Z,100.00
2023-05-15T13:52:44.628Z,100.00
2023-05-15T13:55:11.520Z,100.00
2023-05-15T13:57:39.621Z,100.00
2023-05-15T14:00:07.857Z,100.00
2023-05-15T14:02:34.638Z,100.00
2023-05-15T14:05:02.712Z,100.00
2023-05-15T14:07:29.338Z,100.00
2023-05-15T14:09:56.053Z,100.00
2023-05-15T14:12:22.728Z,100.00
2023-05-15T14:14:50.205Z,100.00
2023-05-15T14:17:17.042Z,100.00
2023-05-15T14:19:44.151Z,100.00
2023-05-15T14:22:11.188Z,100.00
2023-05-15T14:24:37.823Z,100.00
2023-05-15T14:27:06.117Z,100.00
2023-05-15T14:29:32.763Z,100.00
2023-05-15T14:32:00.726Z,100.00
2023-05-15T14:34:27.476Z,100.00
2023-05-15T14:36:55.428Z,100.00
2023-05-15T14:39:22.110Z,100.00
2023-05-15T14:41:50.726Z,100.00
2023-05-15T14:44:17.668Z,100.00
2023-05-15T14:46:44.504Z,100.00
2023-05-15T14:49:11.595Z,100.00
2023-05-15T14:51:38.219Z,100.00
2023-05-15T14:54:05.179Z,100.00
2023-05-15T14:56:32.166Z,100.00
2023-05-15T14:58:58.802Z,100.00
2023-05-15T15:01:25.770Z,100.00
2023-05-15T15:03:52.886Z,100.00
2023-05-15T15:06:20.744Z,100.00
2023-05-15T15:08:47.389Z,100.00
2023-05-15T15:11:15.382Z,100.00
2023-05-15T15:13:42.017Z,100.00
2023-05-15T15:16:09.596Z,100.00
2023-05-15T15:18:36.356Z,100.00
2023-05-15T15:21:03.740Z,100.00
2023-05-15T15:23:30.491Z,100.00
2023-05-15T15:25:57.179Z,100.00
2023-05-15T15:28:23.831Z,100.00
2023-05-15T15:30:50.488Z,100.00
2023-05-15T15:33:17.090Z,100.00
2023-05-15T15:35:43.727Z,100.00
2023-05-15T15:38:11.818Z,100.00
2023-05-15T15:40:38.447Z,100.00
2023-05-15T15:43:06.280Z,100.00
2023-05-15T15:45:32.887Z,100.00
2023-05-15T15:47:59.741Z,100.00
2023-05-15T15:50:27.182Z,100.00
2023-05-15T15:52:54.006Z,100.00
2023-05-15T15:55:20.714Z,100.00
2023-05-15T15:57:48.738Z,100.00
2023-05-15T16:00:17.133Z,100.00
2023-05-15T16:02:43.939Z,100.00
2023-05-15T16:05:10.830Z,100.00
2023-05-15T16:07:37.430Z,100.00
2023-05-15T16:10:12.581Z,100.00
2023-05-15T16:12:46.390Z,100.00
2023-05-15T16:15:23.036Z,100.00
2023-05-15T16:17:53.500Z,100.00
2023-05-15T16:20:22.240Z,100.00
2023-05-15T16:22:48.875Z,100.00
2023-05-15T16:25:16.896Z,100.00
2023-05-15T16:27:43.587Z,100.00
2023-05-15T16:30:11.623Z,100.00
2023-05-15T16:32:40.225Z,100.00
2023-05-15T16:35:07.722Z,100.00
2023-05-15T16:37:34.328Z,100.00
2023-05-15T16:40:01.055Z,100.00
2023-05-15T16:42:27.721Z,100.00
2023-05-15T16:44:55.959Z,100.00
2023-05-15T16:47:22.635Z,100.00
2023-05-15T16:49:50.517Z,100.00
2023-05-15T16:52:17.564Z,100.00
2023-05-15T16:54:44.170Z,100.00
2023-05-15T16:57:12.194Z,100.00
2023-05-15T16:59:38.942Z,100.00
2023-05-15T17:02:05.621Z,100.00
2023-05-15T17:04:35.140Z,100.00
2023-05-15T17:07:01.916Z,100.00
2023-05-15T17:09:28.588Z,100.00
2023-05-15T17:11:55.284Z,100.00
2023-05-15T17:14:24.289Z,100.00
2023-05-15T17:16:50.913Z,100.00
2023-05-15T17:19:17.782Z,100.00
2023-05-15T17:21:45.535Z,100.00
2023-05-15T17:24:12.272Z,100.00
2023-05-15T17:26:38.849Z,100.00
2023-05-15T17:29:07.177Z,100.00
2023-05-15T17:31:35.421Z,100.00
2023-05-15T17:34:03.252Z,100.00
2023-05-15T17:36:29.930Z,100.00
2023-05-15T17:38:56.560Z,100.00
2023-05-15T17:41:23.199Z,100.00
2023-05-15T17:43:49.885Z,100.00
2023-05-15T17:46:16.687Z,100.00
2023-05-15T17:48:44.808Z,100.00
2023-05-15T17:51:12.052Z,100.00
2023-05-15T17:53:38.738Z,100.00
2023-05-15T17:56:05.541Z,100.00
2023-05-15T17:58:32.209Z,100.00
2023-05-15T18:00:59.328Z,100.00
2023-05-15T18:03:26.157Z,100.00
2023-05-15T18:05:52.897Z,100.00
2023-05-15T18:08:19.546Z,100.00
2023-05-15T18:10:46.532Z,100.00
2023-05-15T18:13:14.357Z,100.00
2023-05-15T18:15:40.973Z,100.00
2023-05-15T18:18:08.696Z,100.00
2023-05-15T18:20:35.402Z,100.00
2023-05-15T18:23:02.000Z,100.00
2023-05-15T18:25:28.870Z,100.00
2023-05-15T18:27:55.649Z,100.00
2023-05-15T18:30:22.332Z,100.00
2023-05-15T18:32:50.435Z,100.00
2023-05-15T18:35:18.721Z,100.00
2023-05-15T18:37:45.360Z,100.00
2023-05-15T18:40:13.484Z,100.00
2023-05-15T18:42:40.186Z,100.00
2023-05-15T18:45:09.122Z,100.00
2023-05-15T18:47:37.188Z,100.00
2023-05-15T18:50:04.511Z,100.00
2023-05-15T18:52:31.335Z,100.00
2023-05-15T18:54:57.955Z,100.00
2023-05-15T18:57:24.681Z,100.00
2023-05-15T18:59:51.276Z,100.00
2023-05-15T19:02:17.978Z,100.00
2023-05-15T19:04:44.667Z,100.00
2023-05-15T19:07:11.315Z,100.00
2023-05-15T19:09:38.016Z,100.00
2023-05-15T19:12:05.328Z,100.00
2023-05-15T19:14:34.064Z,100.00
2023-05-15T19:17:00.772Z,100.00
2023-05-15T19:19:28.904Z,100.00
2023-05-15T19:21:55.507Z,100.00
2023-05-15T19:24:22.197Z,100.00
2023-05-15T19:26:48.925Z,100.00
2023-05-15T19:29:15.600Z,100.00
2023-05-15T19:31:43.824Z,100.00
2023-05-15T19:34:10.487Z,100.00
2023-05-15T19:36:37.161Z,100.00
2023-05-15T19:39:03.928Z,100.00
2023-05-15T19:41:30.665Z,100.00
2023-05-15T19:43:57.371Z,100.00
2023-05-15T19:46:25.464Z,100.00
2023-05-15T19:48:54.232Z,100.00
2023-05-15T19:51:20.823Z,100.00
2023-05-15T19:53:47.518Z,100.00
2023-05-15T19:56:14.295Z,100.00
2023-05-15T19:58:40.968Z,100.00
2023-05-15T20:01:07.904Z,100.00
2023-05-15T20:03:34.726Z,100.00
2023-05-15T20:06:02.578Z,100.00
2023-05-15T20:08:29.542Z,100.00
2023-05-15T20:10:56.963Z,100.00
2023-05-15T20:13:24.067Z,100.00
2023-05-15T20:15:57.025Z,100.00
2023-05-15T20:18:25.037Z,100.00
2023-05-15T20:20:54.729Z,100.00
2023-05-15T20:23:23.033Z,100.00
2023-05-15T20:25:50.934Z,100.00
2023-05-15T20:28:17.948Z,100.00
2023-05-15T20:30:47.351Z,100.00
2023-05-15T20:33:14.329Z,100.00
2023-05-15T20:35:42.750Z,100.00
2023-05-15T20:38:11.885Z,100.00
2023-05-15T20:40:39.172Z,100.00
2023-05-15T20:43:05.870Z,100.00
2023-05-15T20:45:32.647Z,100.00
2023-05-15T20:47:59.533Z,100.00
2023-05-15T20:50:27.165Z,100.00
2023-05-15T20:52:54.397Z,100.00
2023-05-15T20:55:21.723Z,100.00
2023-05-15T20:57:49.282Z,100.00
2023-05-15T21:00:17.987Z,100.00
2023-05-15T21:02:46.309Z,100.00
2023-05-15T21:05:13.023Z,100.00
2023-05-15T21:07:39.772Z,100.00
2023-05-15T21:10:08.422Z,100.00
2023-05-15T21:12:36.541Z,100.00
2023-05-15T21:15:04.375Z,100.00
2023-05-15T21:17:31.033Z,100.00
2023-05-15T21:19:58.590Z,100.00
2023-05-15T21:22:25.225Z,100.00
2023-05-15T21:24:52.040Z,100.00
2023-05-15T21:27:19.096Z,100.00
2023-05-15T21:29:47.534Z,100.00
2023-05-15T21:32:15.533Z,100.00
2023-05-15T21:34:42.171Z,100.00
2023-05-15T21:37:10.084Z,100.00
2023-05-15T21:39:36.722Z,100.00
2023-05-15T21:42:03.579Z,100.00
2023-05-15T21:44:30.329Z,100.00
2023-05-15T21:46:57.061Z,100.00
2023-05-15T21:49:23.778Z,100.00
2023-05-15T21:51:50.815Z,100.00
2023-05-15T21:54:17.717Z,100.00
2023-05-15T21:56:44.403Z,100.00
2023-05-15T21:59:14.111Z,100.00
2023-05-15T22:01:41.419Z,100.00
2023-05-15T22:04:09.650Z,100.00
2023-05-15T22:06:36.310Z,100.00
2023-05-15T22:09:03.259Z,100.00
2023-05-15T22:11:29.868Z,100.00
2023-05-15T22:13:56.537Z,100.00
2023-05-15T22:16:23.279Z,100.00
2023-05-15T22:18:50.002Z,100.00
2023-05-15T22:21:16.823Z,100.00
2023-05-15T22:23:44.746Z,100.00
2023-05-15T22:26:11.596Z,100.00
2023-05-15T22:28:38.257Z,100.00
2023-05-15T22:31:05.127Z,100.00
2023-05-15T22:33:31.855Z,100.00
2023-05-15T22:35:58.713Z,100.00
2023-05-15T22:38:26.709Z,100.00
2023-05-15T22:40:53.505Z,100.00
2023-05-15T22:43:22.620Z,100.00
2023-05-15T22:45:49.392Z,100.00
2023-05-15T22:48:16.077Z,100.00
2023-05-15T22:50:44.870Z,100.00
2023-05-15T22:53:11.635Z,100.00
2023-05-15T22:55:38.256Z,100.00
2023-05-15T22:58:04.973Z,100.00
2023-05-15T23:00:31.683Z,100.00
2023-05-15T23:02:58.488Z,100.00
2023-05-15T23:05:25.808Z,100.00
2023-05-15T23:07:52.740Z,100.00
2023-05-15T23:10:19.700Z,100.00
2023-05-15T23:12:46.366Z,100.00
2023-05-15T23:15:13.397Z,100.00
2023-05-15T23:17:40.068Z,100.00
2023-05-15T23:20:08.707Z,100.00
2023-05-15T23:22:35.305Z,100.00
2023-05-15T23:25:03.077Z,100.00
2023-05-15T23:27:29.676Z,100.00
2023-05-15T23:29:56.268Z,100.00
2023-05-15T23:32:22.904Z,100.00
2023-05-15T23:34:49.517Z,100.00
2023-05-15T23:37:17.893Z,100.00
2023-05-15T23:39:44.488Z,100.00
2023-05-15T23:42:13.579Z,100.00
2023-05-15T23:44:40.385Z,100.00
2023-05-15T23:47:08.493Z,100.00
2023-05-15T23:49:37.352Z,100.00
2023-05-15T23:52:05.374Z,100.00
2023-05-15T23:54:32.063Z,100.00
2023-05-15T23:56:58.715Z,100.00
2023-05-15T23:59:25.603Z,100.00
